createdAt,value
2022-09-14T00:24:48.540Z,50
2022-09-14T00:54:40.710Z,51
2022-09-14T01:24:36.319Z,50
2022-09-14T01:54:39.162Z,52
2022-09-14T02:24:40.099Z,58
2022-09-14T02:54:36.227Z,63
2022-09-14T03:24:35.323Z,56
2022-09-14T03:54:35.180Z,51
2022-09-14T04:24:38.570Z,52
2022-09-14T04:54:37.131Z,53
2022-09-14T05:24:43.948Z,53
2022-09-14T05:54:43.820Z,51
2022-09-14T06:54:50.785Z,49
2022-09-14T07:24:56.637Z,50
2022-09-14T07:54:59.591Z,49
2022-09-14T08:25:08.451Z,45
2022-09-14T08:55:14.634Z,49
2022-09-14T09:25:18.741Z,46
2022-09-14T09:55:29.731Z,46
2022-09-14T10:25:25.822Z,46
2022-09-14T10:55:37.979Z,46
2022-09-14T11:25:28.605Z,49
2022-09-14T11:54:50.507Z,59
2022-09-14T12:24:54.884Z,58
2022-09-14T12:54:55.437Z,16
2022-09-14T13:24:53.075Z,15
2022-09-14T13:55:00.061Z,13
2022-09-14T14:24:57.279Z,13
2022-09-14T14:55:00.480Z,14
2022-09-14T15:25:01.517Z,13
2022-09-14T15:55:02.048Z,15
2022-09-14T16:24:59.969Z,17
2022-09-14T16:54:56.732Z,13
2022-09-14T17:24:57.550Z,17
2022-09-14T18:24:58.519Z,14
2022-09-14T18:54:57.270Z,17
2022-09-14T19:24:59.302Z,14
2022-09-14T19:54:58.030Z,16
2022-09-14T20:24:59.380Z,18
2022-09-14T20:54:56.271Z,18
2022-09-14T21:24:56.505Z,18
2022-09-14T21:54:55.578Z,17
2022-09-14T22:24:56.897Z,14
2022-09-14T22:55:00.992Z,14
2022-09-14T23:25:01.476Z,14
2022-09-14T23:54:59.052Z,15
